sensor_id;sensor_type;location;lat;lon;timestamp;P1;durP1;ratioP1;P2;durP2;ratioP2
57858;SDS011;49153;45.568;11.894;2022-12-29T00:01:49;72.60;;;40.13;;
57858;SDS011;49153;45.568;11.894;2022-12-29T00:04:14;74.20;;;39.22;;
57858;SDS011;49153;45.568;11.894;2022-12-29T00:06:40;70.63;;;38.08;;
57858;SDS011;49153;45.568;11.894;2022-12-29T00:09:07;65.97;;;37.35;;
57858;SDS011;49153;45.568;11.894;2022-12-29T00:11:33;64.50;;;35.40;;
57858;SDS011;49153;45.568;11.894;2022-12-29T00:13:59;63.35;;;34.42;;
57858;SDS011;49153;45.568;11.894;2022-12-29T00:16:44;58.85;;;31.90;;
57858;SDS011;49153;45.568;11.894;2022-12-29T00:19:10;54.50;;;31.70;;
57858;SDS011;49153;45.568;11.894;2022-12-29T00:21:55;55.67;;;31.00;;
57858;SDS011;49153;45.568;11.894;2022-12-29T00:24:40;59.92;;;33.20;;
57858;SDS011;49153;45.568;11.894;2022-12-29T00:27:25;58.10;;;31.60;;
57858;SDS011;49153;45.568;11.894;2022-12-29T00:30:10;58.97;;;31.08;;
57858;SDS011;49153;45.568;11.894;2022-12-29T00:33:08;50.83;;;29.83;;
57858;SDS011;49153;45.568;11.894;2022-12-29T00:35:53;53.88;;;30.77;;
57858;SDS011;49153;45.568;11.894;2022-12-29T00:38:23;53.08;;;29.63;;
57858;SDS011;49153;45.568;11.894;2022-12-29T00:41:08;56.97;;;30.83;;
57858;SDS011;49153;45.568;11.894;2022-12-29T00:43:51;56.80;;;30.27;;
57858;SDS011;49153;45.568;11.894;2022-12-29T00:46:38;52.03;;;29.63;;
57858;SDS011;49153;45.568;11.894;2022-12-29T00:49:05;58.80;;;31.67;;
57858;SDS011;49153;45.568;11.894;2022-12-29T00:51:51;54.45;;;30.45;;
57858;SDS011;49153;45.568;11.894;2022-12-29T00:54:17;60.97;;;34.17;;
57858;SDS011;49153;45.568;11.894;2022-12-29T00:56:43;62.22;;;33.85;;
57858;SDS011;49153;45.568;11.894;2022-12-29T00:59:11;54.95;;;31.38;;
57858;SDS011;49153;45.568;11.894;2022-12-29T01:01:37;53.30;;;31.35;;
57858;SDS011;49153;45.568;11.894;2022-12-29T01:04:03;56.17;;;30.52;;
57858;SDS011;49153;45.568;11.894;2022-12-29T01:06:30;55.95;;;30.85;;
57858;SDS011;49153;45.568;11.894;2022-12-29T01:08:56;50.50;;;28.92;;
57858;SDS011;49153;45.568;11.894;2022-12-29T01:11:40;50.03;;;29.42;;
57858;SDS011;49153;45.568;11.894;2022-12-29T01:14:06;53.03;;;30.88;;
57858;SDS011;49153;45.568;11.894;2022-12-29T01:16:31;54.08;;;31.10;;
57858;SDS011;49153;45.568;11.894;2022-12-29T01:18:57;51.40;;;28.75;;
57858;SDS011;49153;45.568;11.894;2022-12-29T01:21:23;48.92;;;27.92;;
57858;SDS011;49153;45.568;11.894;2022-12-29T01:23:49;51.90;;;30.77;;
57858;SDS011;49153;45.568;11.894;2022-12-29T01:26:15;55.85;;;30.35;;
57858;SDS011;49153;45.568;11.894;2022-12-29T01:28:42;49.95;;;29.45;;
57858;SDS011;49153;45.568;11.894;2022-12-29T01:31:08;59.45;;;31.60;;
57858;SDS011;49153;45.568;11.894;2022-12-29T01:33:35;51.88;;;28.77;;
57858;SDS011;49153;45.568;11.894;2022-12-29T01:36:04;52.35;;;28.90;;
57858;SDS011;49153;45.568;11.894;2022-12-29T01:38:31;51.28;;;29.50;;
57858;SDS011;49153;45.568;11.894;2022-12-29T01:40:57;49.83;;;28.63;;
57858;SDS011;49153;45.568;11.894;2022-12-29T01:46:16;43.65;;;25.75;;
57858;SDS011;49153;45.568;11.894;2022-12-29T01:48:49;48.05;;;27.88;;
57858;SDS011;49153;45.568;11.894;2022-12-29T01:51:29;50.65;;;28.33;;
57858;SDS011;49153;45.568;11.894;2022-12-29T01:53:58;46.13;;;26.67;;
57858;SDS011;49153;45.568;11.894;2022-12-29T01:56:28;47.30;;;28.55;;
57858;SDS011;49153;45.568;11.894;2022-12-29T01:59:00;46.58;;;27.05;;
57858;SDS011;49153;45.568;11.894;2022-12-29T02:01:29;49.67;;;28.05;;
57858;SDS011;49153;45.568;11.894;2022-12-29T02:03:55;49.40;;;28.35;;
57858;SDS011;49153;45.568;11.894;2022-12-29T02:06:22;46.25;;;26.80;;
57858;SDS011;49153;45.568;11.894;2022-12-29T02:08:52;50.27;;;28.37;;
57858;SDS011;49153;45.568;11.894;2022-12-29T02:11:20;48.67;;;28.02;;
57858;SDS011;49153;45.568;11.894;2022-12-29T02:13:48;49.63;;;27.92;;
57858;SDS011;49153;45.568;11.894;2022-12-29T02:16:20;48.78;;;27.63;;
57858;SDS011;49153;45.568;11.894;2022-12-29T02:19:02;48.13;;;27.30;;
57858;SDS011;49153;45.568;11.894;2022-12-29T02:32:29;50.63;;;28.92;;
57858;SDS011;49153;45.568;11.894;2022-12-29T02:35:08;48.55;;;27.90;;
57858;SDS011;49153;45.568;11.894;2022-12-29T02:50:43;47.63;;;26.30;;
57858;SDS011;49153;45.568;11.894;2022-12-29T02:53:16;47.63;;;27.30;;
57858;SDS011;49153;45.568;11.894;2022-12-29T02:56:04;41.92;;;24.10;;
57858;SDS011;49153;45.568;11.894;2022-12-29T02:58:29;42.13;;;26.55;;
57858;SDS011;49153;45.568;11.894;2022-12-29T03:01:08;44.80;;;24.98;;
57858;SDS011;49153;45.568;11.894;2022-12-29T03:12:20;41.35;;;23.90;;
57858;SDS011;49153;45.568;11.894;2022-12-29T03:14:49;40.50;;;23.52;;
57858;SDS011;49153;45.568;11.894;2022-12-29T03:20:24;41.05;;;23.92;;
57858;SDS011;49153;45.568;11.894;2022-12-29T03:22:57;41.72;;;23.95;;
57858;SDS011;49153;45.568;11.894;2022-12-29T03:25:47;43.30;;;23.92;;
57858;SDS011;49153;45.568;11.894;2022-12-29T03:28:14;41.45;;;23.70;;
57858;SDS011;49153;45.568;11.894;2022-12-29T03:30:46;43.25;;;24.52;;
57858;SDS011;49153;45.568;11.894;2022-12-29T03:33:13;40.35;;;23.17;;
57858;SDS011;49153;45.568;11.894;2022-12-29T03:35:44;37.65;;;22.13;;
57858;SDS011;49153;45.568;11.894;2022-12-29T03:43:11;38.20;;;21.35;;
57858;SDS011;49153;45.568;11.894;2022-12-29T03:45:38;40.30;;;22.52;;
57858;SDS011;49153;45.568;11.894;2022-12-29T03:48:03;35.15;;;21.05;;
57858;SDS011;49153;45.568;11.894;2022-12-29T03:50:29;41.70;;;22.40;;
57858;SDS011;49153;45.568;11.894;2022-12-29T03:52:54;39.72;;;21.77;;
57858;SDS011;49153;45.568;11.894;2022-12-29T03:55:20;37.05;;;21.73;;
57858;SDS011;49153;45.568;11.894;2022-12-29T03:57:45;37.30;;;21.70;;
57858;SDS011;49153;45.568;11.894;2022-12-29T04:00:11;36.50;;;22.13;;
57858;SDS011;49153;45.568;11.894;2022-12-29T04:02:37;36.30;;;20.95;;
57858;SDS011;49153;45.568;11.894;2022-12-29T04:05:02;31.92;;;19.35;;
57858;SDS011;49153;45.568;11.894;2022-12-29T04:07:28;37.63;;;22.42;;
57858;SDS011;49153;45.568;11.894;2022-12-29T04:09:53;34.20;;;20.55;;
57858;SDS011;49153;45.568;11.894;2022-12-29T04:12:18;35.70;;;20.20;;
57858;SDS011;49153;45.568;11.894;2022-12-29T04:14:44;34.10;;;20.52;;
57858;SDS011;49153;45.568;11.894;2022-12-29T04:17:09;38.28;;;22.42;;
57858;SDS011;49153;45.568;11.894;2022-12-29T04:19:35;36.55;;;21.45;;
57858;SDS011;49153;45.568;11.894;2022-12-29T04:22:00;36.50;;;20.95;;
57858;SDS011;49153;45.568;11.894;2022-12-29T04:24:25;31.77;;;19.45;;
57858;SDS011;49153;45.568;11.894;2022-12-29T04:26:51;33.92;;;20.33;;
57858;SDS011;49153;45.568;11.894;2022-12-29T04:29:16;36.22;;;20.23;;
57858;SDS011;49153;45.568;11.894;2022-12-29T04:31:42;33.50;;;20.58;;
57858;SDS011;49153;45.568;11.894;2022-12-29T04:34:07;30.40;;;19.67;;
57858;SDS011;49153;45.568;11.894;2022-12-29T04:36:32;32.75;;;20.35;;
57858;SDS011;49153;45.568;11.894;2022-12-29T04:38:58;33.15;;;19.98;;
57858;SDS011;49153;45.568;11.894;2022-12-29T04:41:24;35.40;;;19.67;;
57858;SDS011;49153;45.568;11.894;2022-12-29T04:43:49;35.25;;;19.80;;
57858;SDS011;49153;45.568;11.894;2022-12-29T04:46:15;31.98;;;19.40;;
57858;SDS011;49153;45.568;11.894;2022-12-29T04:48:40;31.52;;;20.08;;
57858;SDS011;49153;45.568;11.894;2022-12-29T04:51:05;31.77;;;18.90;;
57858;SDS011;49153;45.568;11.894;2022-12-29T04:53:31;34.03;;;19.95;;
57858;SDS011;49153;45.568;11.894;2022-12-29T04:55:56;32.83;;;19.42;;
57858;SDS011;49153;45.568;11.894;2022-12-29T04:58:22;36.05;;;21.48;;
57858;SDS011;49153;45.568;11.894;2022-12-29T05:00:47;34.38;;;20.58;;
57858;SDS011;49153;45.568;11.894;2022-12-29T05:03:13;35.08;;;21.08;;
57858;SDS011;49153;45.568;11.894;2022-12-29T05:05:38;31.42;;;19.38;;
57858;SDS011;49153;45.568;11.894;2022-12-29T05:08:04;33.10;;;20.95;;
57858;SDS011;49153;45.568;11.894;2022-12-29T05:10:29;34.85;;;20.73;;
57858;SDS011;49153;45.568;11.894;2022-12-29T05:12:55;36.55;;;21.08;;
57858;SDS011;49153;45.568;11.894;2022-12-29T05:15:20;31.65;;;18.75;;
57858;SDS011;49153;45.568;11.894;2022-12-29T05:17:46;36.20;;;20.02;;
57858;SDS011;49153;45.568;11.894;2022-12-29T05:20:11;33.33;;;20.10;;
57858;SDS011;49153;45.568;11.894;2022-12-29T05:22:37;31.27;;;19.10;;
57858;SDS011;49153;45.568;11.894;2022-12-29T05:25:02;32.25;;;19.95;;
57858;SDS011;49153;45.568;11.894;2022-12-29T05:27:28;31.85;;;18.95;;
57858;SDS011;49153;45.568;11.894;2022-12-29T05:29:53;32.10;;;18.63;;
57858;SDS011;49153;45.568;11.894;2022-12-29T05:32:19;33.38;;;19.55;;
57858;SDS011;49153;45.568;11.894;2022-12-29T05:34:45;34.10;;;20.50;;
57858;SDS011;49153;45.568;11.894;2022-12-29T05:37:10;34.78;;;19.85;;
57858;SDS011;49153;45.568;11.894;2022-12-29T05:39:36;31.08;;;18.98;;
57858;SDS011;49153;45.568;11.894;2022-12-29T05:42:01;32.78;;;19.20;;
57858;SDS011;49153;45.568;11.894;2022-12-29T05:44:27;30.98;;;19.17;;
57858;SDS011;49153;45.568;11.894;2022-12-29T05:46:52;32.45;;;19.15;;
57858;SDS011;49153;45.568;11.894;2022-12-29T05:49:18;31.38;;;19.50;;
57858;SDS011;49153;45.568;11.894;2022-12-29T05:51:43;33.08;;;18.83;;
57858;SDS011;49153;45.568;11.894;2022-12-29T05:54:09;31.60;;;18.17;;
57858;SDS011;49153;45.568;11.894;2022-12-29T05:56:34;29.40;;;16.85;;
57858;SDS011;49153;45.568;11.894;2022-12-29T05:58:59;30.15;;;18.40;;
57858;SDS011;49153;45.568;11.894;2022-12-29T06:01:25;34.63;;;19.67;;
57858;SDS011;49153;45.568;11.894;2022-12-29T06:03:50;33.63;;;19.63;;
57858;SDS011;49153;45.568;11.894;2022-12-29T06:06:16;30.83;;;18.67;;
57858;SDS011;49153;45.568;11.894;2022-12-29T06:08:41;32.38;;;18.27;;
57858;SDS011;49153;45.568;11.894;2022-12-29T06:11:07;29.58;;;18.85;;
57858;SDS011;49153;45.568;11.894;2022-12-29T06:13:32;33.95;;;18.25;;
57858;SDS011;49153;45.568;11.894;2022-12-29T06:15:57;30.63;;;18.83;;
57858;SDS011;49153;45.568;11.894;2022-12-29T06:18:23;33.42;;;18.55;;
57858;SDS011;49153;45.568;11.894;2022-12-29T06:20:48;35.55;;;20.50;;
57858;SDS011;49153;45.568;11.894;2022-12-29T06:23:14;34.88;;;20.10;;
57858;SDS011;49153;45.568;11.894;2022-12-29T06:25:41;33.83;;;20.50;;
57858;SDS011;49153;45.568;11.894;2022-12-29T06:28:07;33.55;;;19.40;;
57858;SDS011;49153;45.568;11.894;2022-12-29T06:30:32;32.03;;;18.25;;
57858;SDS011;49153;45.568;11.894;2022-12-29T06:32:58;29.77;;;17.48;;
57858;SDS011;49153;45.568;11.894;2022-12-29T06:35:24;31.60;;;17.77;;
57858;SDS011;49153;45.568;11.894;2022-12-29T06:37:50;28.50;;;17.67;;
57858;SDS011;49153;45.568;11.894;2022-12-29T06:40:15;29.65;;;17.30;;
57858;SDS011;49153;45.568;11.894;2022-12-29T06:42:41;30.20;;;18.52;;
57858;SDS011;49153;45.568;11.894;2022-12-29T06:45:07;29.35;;;17.70;;
57858;SDS011;49153;45.568;11.894;2022-12-29T06:47:34;30.90;;;18.17;;
57858;SDS011;49153;45.568;11.894;2022-12-29T06:50:00;32.00;;;18.33;;
57858;SDS011;49153;45.568;11.894;2022-12-29T06:52:25;28.88;;;17.83;;
57858;SDS011;49153;45.568;11.894;2022-12-29T06:54:51;30.92;;;17.20;;
57858;SDS011;49153;45.568;11.894;2022-12-29T06:57:16;28.50;;;17.10;;
57858;SDS011;49153;45.568;11.894;2022-12-29T06:59:42;28.83;;;17.02;;
57858;SDS011;49153;45.568;11.894;2022-12-29T07:02:09;27.15;;;16.35;;
57858;SDS011;49153;45.568;11.894;2022-12-29T07:04:35;29.52;;;17.15;;
57858;SDS011;49153;45.568;11.894;2022-12-29T07:07:01;27.92;;;17.40;;
57858;SDS011;49153;45.568;11.894;2022-12-29T07:09:26;31.08;;;18.02;;
57858;SDS011;49153;45.568;11.894;2022-12-29T07:11:52;33.55;;;20.00;;
57858;SDS011;49153;45.568;11.894;2022-12-29T07:14:17;33.10;;;19.45;;
57858;SDS011;49153;45.568;11.894;2022-12-29T07:16:42;36.15;;;22.73;;
57858;SDS011;49153;45.568;11.894;2022-12-29T07:19:08;36.35;;;20.52;;
57858;SDS011;49153;45.568;11.894;2022-12-29T07:21:33;30.08;;;20.13;;
57858;SDS011;49153;45.568;11.894;2022-12-29T07:23:59;31.35;;;19.38;;
57858;SDS011;49153;45.568;11.894;2022-12-29T07:26:24;32.20;;;19.20;;
57858;SDS011;49153;45.568;11.894;2022-12-29T07:28:49;29.65;;;19.13;;
57858;SDS011;49153;45.568;11.894;2022-12-29T07:31:16;30.75;;;19.58;;
57858;SDS011;49153;45.568;11.894;2022-12-29T07:33:44;32.63;;;19.52;;
57858;SDS011;49153;45.568;11.894;2022-12-29T07:36:11;34.33;;;19.92;;
57858;SDS011;49153;45.568;11.894;2022-12-29T07:38:37;31.23;;;19.10;;
57858;SDS011;49153;45.568;11.894;2022-12-29T07:41:04;28.45;;;18.25;;
57858;SDS011;49153;45.568;11.894;2022-12-29T07:43:33;32.42;;;19.85;;
57858;SDS011;49153;45.568;11.894;2022-12-29T07:45:58;31.15;;;19.90;;
57858;SDS011;49153;45.568;11.894;2022-12-29T07:48:24;36.03;;;21.67;;
57858;SDS011;49153;45.568;11.894;2022-12-29T07:50:49;36.92;;;23.55;;
57858;SDS011;49153;45.568;11.894;2022-12-29T07:53:15;37.33;;;23.23;;
57858;SDS011;49153;45.568;11.894;2022-12-29T07:55:40;40.35;;;22.13;;
57858;SDS011;49153;45.568;11.894;2022-12-29T07:58:06;37.28;;;21.85;;
57858;SDS011;49153;45.568;11.894;2022-12-29T08:00:31;34.97;;;21.45;;
57858;SDS011;49153;45.568;11.894;2022-12-29T08:02:57;42.33;;;24.20;;
57858;SDS011;49153;45.568;11.894;2022-12-29T08:05:23;35.80;;;22.15;;
57858;SDS011;49153;45.568;11.894;2022-12-29T08:07:48;34.38;;;21.58;;
57858;SDS011;49153;45.568;11.894;2022-12-29T08:10:14;33.20;;;20.27;;
57858;SDS011;49153;45.568;11.894;2022-12-29T08:12:40;36.17;;;19.92;;
57858;SDS011;49153;45.568;11.894;2022-12-29T08:15:07;34.92;;;20.83;;
57858;SDS011;49153;45.568;11.894;2022-12-29T08:17:33;32.83;;;19.45;;
57858;SDS011;49153;45.568;11.894;2022-12-29T08:19:59;35.30;;;20.90;;
57858;SDS011;49153;45.568;11.894;2022-12-29T08:22:25;36.30;;;20.83;;
57858;SDS011;49153;45.568;11.894;2022-12-29T08:24:50;30.40;;;18.65;;
57858;SDS011;49153;45.568;11.894;2022-12-29T08:27:16;33.55;;;19.90;;
57858;SDS011;49153;45.568;11.894;2022-12-29T08:29:42;33.13;;;19.65;;
57858;SDS011;49153;45.568;11.894;2022-12-29T08:32:07;33.65;;;21.67;;
57858;SDS011;49153;45.568;11.894;2022-12-29T08:34:33;37.22;;;20.88;;
57858;SDS011;49153;45.568;11.894;2022-12-29T08:36:58;37.17;;;21.27;;
57858;SDS011;49153;45.568;11.894;2022-12-29T08:39:24;39.55;;;22.98;;
57858;SDS011;49153;45.568;11.894;2022-12-29T08:41:49;37.28;;;22.27;;
57858;SDS011;49153;45.568;11.894;2022-12-29T08:44:15;39.15;;;24.17;;
57858;SDS011;49153;45.568;11.894;2022-12-29T08:46:40;43.13;;;24.33;;
57858;SDS011;49153;45.568;11.894;2022-12-29T08:49:06;35.47;;;22.25;;
57858;SDS011;49153;45.568;11.894;2022-12-29T08:51:31;34.20;;;21.30;;
57858;SDS011;49153;45.568;11.894;2022-12-29T08:53:57;35.70;;;22.23;;
57858;SDS011;49153;45.568;11.894;2022-12-29T08:56:22;37.17;;;22.45;;
57858;SDS011;49153;45.568;11.894;2022-12-29T08:58:48;31.58;;;18.90;;
57858;SDS011;49153;45.568;11.894;2022-12-29T09:01:14;34.08;;;20.52;;
57858;SDS011;49153;45.568;11.894;2022-12-29T09:03:40;37.88;;;22.13;;
57858;SDS011;49153;45.568;11.894;2022-12-29T09:06:05;35.42;;;21.95;;
57858;SDS011;49153;45.568;11.894;2022-12-29T09:08:31;32.83;;;21.02;;
57858;SDS011;49153;45.568;11.894;2022-12-29T09:11:05;40.80;;;23.45;;
57858;SDS011;49153;45.568;11.894;2022-12-29T09:13:41;40.45;;;21.83;;
57858;SDS011;49153;45.568;11.894;2022-12-29T09:16:06;41.33;;;22.83;;
57858;SDS011;49153;45.568;11.894;2022-12-29T09:18:32;37.53;;;22.67;;
57858;SDS011;49153;45.568;11.894;2022-12-29T09:20:59;38.50;;;22.27;;
57858;SDS011;49153;45.568;11.894;2022-12-29T09:23:26;34.28;;;20.17;;
57858;SDS011;49153;45.568;11.894;2022-12-29T09:25:52;34.78;;;20.50;;
57858;SDS011;49153;45.568;11.894;2022-12-29T09:28:18;32.08;;;19.83;;
57858;SDS011;49153;45.568;11.894;2022-12-29T09:30:44;29.60;;;18.77;;
57858;SDS011;49153;45.568;11.894;2022-12-29T09:33:09;35.70;;;21.20;;
57858;SDS011;49153;45.568;11.894;2022-12-29T09:35:35;28.23;;;16.98;;
57858;SDS011;49153;45.568;11.894;2022-12-29T09:38:01;32.70;;;20.13;;
57858;SDS011;49153;45.568;11.894;2022-12-29T09:40:30;31.48;;;19.45;;
57858;SDS011;49153;45.568;11.894;2022-12-29T09:48:44;32.22;;;19.58;;
57858;SDS011;49153;45.568;11.894;2022-12-29T09:51:20;33.13;;;20.38;;
57858;SDS011;49153;45.568;11.894;2022-12-29T09:53:53;32.17;;;19.08;;
57858;SDS011;49153;45.568;11.894;2022-12-29T09:56:23;35.55;;;20.13;;
57858;SDS011;49153;45.568;11.894;2022-12-29T09:59:04;35.00;;;20.42;;
57858;SDS011;49153;45.568;11.894;2022-12-29T10:01:41;33.30;;;19.08;;
57858;SDS011;49153;45.568;11.894;2022-12-29T10:04:12;33.72;;;20.13;;
57858;SDS011;49153;45.568;11.894;2022-12-29T10:22:59;30.77;;;17.45;;
57858;SDS011;49153;45.568;11.894;2022-12-29T10:25:34;29.60;;;18.20;;
57858;SDS011;49153;45.568;11.894;2022-12-29T10:28:04;31.00;;;19.77;;
57858;SDS011;49153;45.568;11.894;2022-12-29T10:30:40;28.02;;;17.80;;
57858;SDS011;49153;45.568;11.894;2022-12-29T10:33:07;34.25;;;18.92;;
57858;SDS011;49153;45.568;11.894;2022-12-29T10:35:41;34.33;;;19.63;;
57858;SDS011;49153;45.568;11.894;2022-12-29T10:38:12;31.83;;;19.92;;
57858;SDS011;49153;45.568;11.894;2022-12-29T10:40:49;31.02;;;19.00;;
57858;SDS011;49153;45.568;11.894;2022-12-29T10:45:45;35.30;;;19.70;;
57858;SDS011;49153;45.568;11.894;2022-12-29T10:48:13;30.60;;;17.85;;
57858;SDS011;49153;45.568;11.894;2022-12-29T10:50:47;44.08;;;25.27;;
57858;SDS011;49153;45.568;11.894;2022-12-29T10:53:19;40.83;;;22.05;;
57858;SDS011;49153;45.568;11.894;2022-12-29T10:55:47;32.63;;;19.30;;
57858;SDS011;49153;45.568;11.894;2022-12-29T10:58:14;29.33;;;18.30;;
57858;SDS011;49153;45.568;11.894;2022-12-29T11:00:40;32.85;;;18.75;;
57858;SDS011;49153;45.568;11.894;2022-12-29T11:08:51;32.15;;;18.83;;
57858;SDS011;49153;45.568;11.894;2022-12-29T11:11:27;32.47;;;18.77;;
57858;SDS011;49153;45.568;11.894;2022-12-29T11:14:02;32.00;;;20.08;;
57858;SDS011;49153;45.568;11.894;2022-12-29T11:16:36;25.92;;;15.20;;
57858;SDS011;49153;45.568;11.894;2022-12-29T11:19:01;32.63;;;19.65;;
57858;SDS011;49153;45.568;11.894;2022-12-29T11:24:08;32.88;;;19.00;;
57858;SDS011;49153;45.568;11.894;2022-12-29T11:26:46;26.98;;;17.58;;
57858;SDS011;49153;45.568;11.894;2022-12-29T11:34:08;31.15;;;19.08;;
57858;SDS011;49153;45.568;11.894;2022-12-29T11:36:34;30.85;;;18.55;;
57858;SDS011;49153;45.568;11.894;2022-12-29T11:39:01;29.75;;;19.17;;
57858;SDS011;49153;45.568;11.894;2022-12-29T11:41:30;32.38;;;19.75;;
57858;SDS011;49153;45.568;11.894;2022-12-29T11:43:57;33.80;;;20.27;;
57858;SDS011;49153;45.568;11.894;2022-12-29T11:46:27;31.60;;;18.55;;
57858;SDS011;49153;45.568;11.894;2022-12-29T11:48:57;32.08;;;19.45;;
57858;SDS011;49153;45.568;11.894;2022-12-29T11:51:27;35.88;;;18.83;;
57858;SDS011;49153;45.568;11.894;2022-12-29T11:53:59;34.42;;;19.95;;
57858;SDS011;49153;45.568;11.894;2022-12-29T11:56:46;31.75;;;19.08;;
57858;SDS011;49153;45.568;11.894;2022-12-29T12:01:53;33.55;;;20.05;;
57858;SDS011;49153;45.568;11.894;2022-12-29T12:04:23;34.50;;;20.13;;
57858;SDS011;49153;45.568;11.894;2022-12-29T12:07:00;36.78;;;20.35;;
57858;SDS011;49153;45.568;11.894;2022-12-29T12:09:34;30.25;;;17.88;;
57858;SDS011;49153;45.568;11.894;2022-12-29T12:12:08;30.20;;;19.48;;
57858;SDS011;49153;45.568;11.894;2022-12-29T12:14:50;31.45;;;20.52;;
57858;SDS011;49153;45.568;11.894;2022-12-29T12:17:38;30.47;;;20.13;;
57858;SDS011;49153;45.568;11.894;2022-12-29T12:23:01;34.08;;;20.60;;
57858;SDS011;49153;45.568;11.894;2022-12-29T12:25:38;33.28;;;20.05;;
57858;SDS011;49153;45.568;11.894;2022-12-29T12:31:03;33.75;;;19.55;;
57858;SDS011;49153;45.568;11.894;2022-12-29T12:33:37;30.70;;;19.20;;
57858;SDS011;49153;45.568;11.894;2022-12-29T12:50:48;33.35;;;19.77;;
57858;SDS011;49153;45.568;11.894;2022-12-29T13:04:56;31.85;;;19.90;;
57858;SDS011;49153;45.568;11.894;2022-12-29T13:29:59;31.45;;;19.95;;
57858;SDS011;49153;45.568;11.894;2022-12-29T13:35:46;34.28;;;20.55;;
57858;SDS011;49153;45.568;11.894;2022-12-29T13:38:37;32.75;;;19.98;;
57858;SDS011;49153;45.568;11.894;2022-12-29T13:41:53;35.10;;;20.25;;
57858;SDS011;49153;45.568;11.894;2022-12-29T13:44:09;33.85;;;18.63;;
57858;SDS011;49153;45.568;11.894;2022-12-29T13:46:42;40.30;;;22.67;;
57858;SDS011;49153;45.568;11.894;2022-12-29T13:49:29;34.75;;;21.83;;
57858;SDS011;49153;45.568;11.894;2022-12-29T13:51:56;34.00;;;21.30;;
57858;SDS011;49153;45.568;11.894;2022-12-29T14:00:12;35.33;;;20.70;;
57858;SDS011;49153;45.568;11.894;2022-12-29T14:08:10;33.70;;;20.15;;
57858;SDS011;49153;45.568;11.894;2022-12-29T14:10:47;33.70;;;20.00;;
57858;SDS011;49153;45.568;11.894;2022-12-29T14:15:49;32.30;;;20.30;;
57858;SDS011;49153;45.568;11.894;2022-12-29T14:18:23;32.88;;;19.92;;
57858;SDS011;49153;45.568;11.894;2022-12-29T14:20:58;31.13;;;18.30;;
57858;SDS011;49153;45.568;11.894;2022-12-29T14:23:35;32.10;;;20.25;;
57858;SDS011;49153;45.568;11.894;2022-12-29T14:28:32;32.17;;;20.13;;
57858;SDS011;49153;45.568;11.894;2022-12-29T14:33:41;34.47;;;21.05;;
57858;SDS011;49153;45.568;11.894;2022-12-29T14:36:34;32.55;;;20.45;;
57858;SDS011;49153;45.568;11.894;2022-12-29T14:44:45;34.08;;;20.63;;
57858;SDS011;49153;45.568;11.894;2022-12-29T14:47:11;33.15;;;20.55;;
57858;SDS011;49153;45.568;11.894;2022-12-29T14:52:30;33.72;;;20.75;;
57858;SDS011;49153;45.568;11.894;2022-12-29T14:57:29;34.53;;;21.63;;
57858;SDS011;49153;45.568;11.894;2022-12-29T15:00:05;36.88;;;22.05;;
57858;SDS011;49153;45.568;11.894;2022-12-29T15:02:54;34.22;;;20.92;;
57858;SDS011;49153;45.568;11.894;2022-12-29T15:05:30;35.35;;;21.33;;
57858;SDS011;49153;45.568;11.894;2022-12-29T15:08:00;34.58;;;20.77;;
57858;SDS011;49153;45.568;11.894;2022-12-29T15:10:31;35.20;;;20.67;;
57858;SDS011;49153;45.568;11.894;2022-12-29T15:13:03;34.55;;;21.58;;
57858;SDS011;49153;45.568;11.894;2022-12-29T15:15:35;34.85;;;20.23;;
57858;SDS011;49153;45.568;11.894;2022-12-29T15:18:14;31.02;;;20.45;;
57858;SDS011;49153;45.568;11.894;2022-12-29T15:20:40;30.88;;;19.98;;
57858;SDS011;49153;45.568;11.894;2022-12-29T15:23:10;34.22;;;20.70;;
57858;SDS011;49153;45.568;11.894;2022-12-29T15:26:12;34.50;;;20.45;;
57858;SDS011;49153;45.568;11.894;2022-12-29T15:28:42;34.90;;;21.00;;
57858;SDS011;49153;45.568;11.894;2022-12-29T15:31:31;31.98;;;20.52;;
57858;SDS011;49153;45.568;11.894;2022-12-29T15:34:07;33.35;;;20.63;;
57858;SDS011;49153;45.568;11.894;2022-12-29T15:36:40;31.83;;;19.88;;
57858;SDS011;49153;45.568;11.894;2022-12-29T15:39:28;34.35;;;21.25;;
57858;SDS011;49153;45.568;11.894;2022-12-29T15:41:56;31.65;;;20.33;;
57858;SDS011;49153;45.568;11.894;2022-12-29T15:44:37;31.92;;;20.58;;
57858;SDS011;49153;45.568;11.894;2022-12-29T15:47:05;34.83;;;21.13;;
57858;SDS011;49153;45.568;11.894;2022-12-29T15:49:47;37.08;;;20.85;;
57858;SDS011;49153;45.568;11.894;2022-12-29T15:52:18;31.20;;;19.52;;
57858;SDS011;49153;45.568;11.894;2022-12-29T15:54:46;32.13;;;21.00;;
57858;SDS011;49153;45.568;11.894;2022-12-29T15:57:25;35.78;;;21.35;;
57858;SDS011;49153;45.568;11.894;2022-12-29T15:59:52;33.00;;;19.50;;
57858;SDS011;49153;45.568;11.894;2022-12-29T16:02:19;33.58;;;20.50;;
57858;SDS011;49153;45.568;11.894;2022-12-29T16:04:46;32.53;;;20.52;;
57858;SDS011;49153;45.568;11.894;2022-12-29T16:07:46;32.15;;;20.52;;
57858;SDS011;49153;45.568;11.894;2022-12-29T16:10:21;33.40;;;21.67;;
57858;SDS011;49153;45.568;11.894;2022-12-29T16:12:50;34.15;;;21.05;;
57858;SDS011;49153;45.568;11.894;2022-12-29T16:15:16;32.95;;;20.50;;
57858;SDS011;49153;45.568;11.894;2022-12-29T16:17:48;35.72;;;21.85;;
57858;SDS011;49153;45.568;11.894;2022-12-29T16:20:19;35.30;;;21.52;;
57858;SDS011;49153;45.568;11.894;2022-12-29T16:23:09;39.33;;;22.85;;
57858;SDS011;49153;45.568;11.894;2022-12-29T16:25:47;35.80;;;21.77;;
57858;SDS011;49153;45.568;11.894;2022-12-29T16:28:20;38.35;;;21.55;;
57858;SDS011;49153;45.568;11.894;2022-12-29T16:30:56;36.60;;;21.73;;
57858;SDS011;49153;45.568;11.894;2022-12-29T16:33:43;36.72;;;21.92;;
57858;SDS011;49153;45.568;11.894;2022-12-29T16:36:21;41.03;;;24.45;;
57858;SDS011;49153;45.568;11.894;2022-12-29T16:38:50;37.88;;;23.50;;
57858;SDS011;49153;45.568;11.894;2022-12-29T16:41:31;43.65;;;25.63;;
57858;SDS011;49153;45.568;11.894;2022-12-29T16:44:16;35.92;;;23.42;;
57858;SDS011;49153;45.568;11.894;2022-12-29T16:46:55;41.80;;;23.65;;
57858;SDS011;49153;45.568;11.894;2022-12-29T16:49:22;37.33;;;24.35;;
57858;SDS011;49153;45.568;11.894;2022-12-29T16:51:48;35.75;;;22.75;;
57858;SDS011;49153;45.568;11.894;2022-12-29T16:54:19;37.53;;;23.23;;
57858;SDS011;49153;45.568;11.894;2022-12-29T16:56:48;37.17;;;23.00;;
57858;SDS011;49153;45.568;11.894;2022-12-29T16:59:33;45.88;;;26.13;;
57858;SDS011;49153;45.568;11.894;2022-12-29T17:02:20;40.03;;;23.92;;
57858;SDS011;49153;45.568;11.894;2022-12-29T17:04:49;43.72;;;24.77;;
57858;SDS011;49153;45.568;11.894;2022-12-29T17:07:19;40.53;;;23.77;;
57858;SDS011;49153;45.568;11.894;2022-12-29T17:09:46;45.72;;;26.73;;
57858;SDS011;49153;45.568;11.894;2022-12-29T17:12:15;55.42;;;29.58;;
57858;SDS011;49153;45.568;11.894;2022-12-29T17:17:31;50.08;;;28.67;;
57858;SDS011;49153;45.568;11.894;2022-12-29T17:20:05;47.47;;;27.13;;